sensor_id;sensor_type;location;lat;lon;timestamp;P1;durP1;ratioP1;P2;durP2;ratioP2
68475;SDS011;55464;48.266;14.188;2024-02-15T00:01:55;15.18;;;7.72;;
68475;SDS011;55464;48.266;14.188;2024-02-15T00:04:20;14.73;;;6.70;;
68475;SDS011;55464;48.266;14.188;2024-02-15T00:06:46;10.48;;;6.53;;
68475;SDS011;55464;48.266;14.188;2024-02-15T00:09:12;16.90;;;6.60;;
68475;SDS011;55464;48.266;14.188;2024-02-15T00:11:37;13.15;;;6.70;;
68475;SDS011;55464;48.266;14.188;2024-02-15T00:14:05;12.80;;;6.65;;
68475;SDS011;55464;48.266;14.188;2024-02-15T00:16:30;13.05;;;6.63;;
68475;SDS011;55464;48.266;14.188;2024-02-15T00:18:56;11.57;;;6.68;;
68475;SDS011;55464;48.266;14.188;2024-02-15T00:21:22;15.05;;;6.13;;
68475;SDS011;55464;48.266;14.188;2024-02-15T00:23:50;15.82;;;6.75;;
68475;SDS011;55464;48.266;14.188;2024-02-15T00:26:16;13.38;;;6.93;;
68475;SDS011;55464;48.266;14.188;2024-02-15T00:28:41;9.73;;;6.28;;
68475;SDS011;55464;48.266;14.188;2024-02-15T00:31:07;15.82;;;6.47;;
68475;SDS011;55464;48.266;14.188;2024-02-15T00:33:33;9.63;;;6.10;;
68475;SDS011;55464;48.266;14.188;2024-02-15T00:36:02;10.00;;;6.13;;
68475;SDS011;55464;48.266;14.188;2024-02-15T00:38:29;10.50;;;6.22;;
68475;SDS011;55464;48.266;14.188;2024-02-15T00:40:54;9.00;;;6.38;;
68475;SDS011;55464;48.266;14.188;2024-02-15T00:43:20;12.77;;;6.07;;
68475;SDS011;55464;48.266;14.188;2024-02-15T00:45:45;10.90;;;5.95;;
68475;SDS011;55464;48.266;14.188;2024-02-15T00:48:11;12.10;;;7.28;;
68475;SDS011;55464;48.266;14.188;2024-02-15T00:50:37;8.93;;;6.30;;
68475;SDS011;55464;48.266;14.188;2024-02-15T00:53:03;16.90;;;7.72;;
68475;SDS011;55464;48.266;14.188;2024-02-15T00:55:28;12.93;;;6.15;;
68475;SDS011;55464;48.266;14.188;2024-02-15T00:57:54;14.63;;;7.22;;
68475;SDS011;55464;48.266;14.188;2024-02-15T01:00:19;11.18;;;6.65;;
68475;SDS011;55464;48.266;14.188;2024-02-15T01:02:45;13.38;;;6.57;;
68475;SDS011;55464;48.266;14.188;2024-02-15T01:05:11;17.58;;;6.45;;
68475;SDS011;55464;48.266;14.188;2024-02-15T01:07:36;11.35;;;6.22;;
68475;SDS011;55464;48.266;14.188;2024-02-15T01:10:02;12.70;;;6.30;;
68475;SDS011;55464;48.266;14.188;2024-02-15T01:12:31;9.70;;;6.28;;
68475;SDS011;55464;48.266;14.188;2024-02-15T01:14:58;10.02;;;6.65;;
68475;SDS011;55464;48.266;14.188;2024-02-15T01:17:23;14.18;;;7.03;;
68475;SDS011;55464;48.266;14.188;2024-02-15T01:19:49;22.02;;;9.55;;
68475;SDS011;55464;48.266;14.188;2024-02-15T01:22:14;32.38;;;14.25;;
68475;SDS011;55464;48.266;14.188;2024-02-15T01:24:39;18.17;;;10.15;;
68475;SDS011;55464;48.266;14.188;2024-02-15T01:27:05;16.55;;;8.23;;
68475;SDS011;55464;48.266;14.188;2024-02-15T01:29:32;12.88;;;7.68;;
68475;SDS011;55464;48.266;14.188;2024-02-15T01:31:57;10.50;;;6.20;;
68475;SDS011;55464;48.266;14.188;2024-02-15T01:34:22;11.70;;;6.78;;
68475;SDS011;55464;48.266;14.188;2024-02-15T01:36:48;13.00;;;6.90;;
68475;SDS011;55464;48.266;14.188;2024-02-15T01:39:15;12.13;;;6.45;;
68475;SDS011;55464;48.266;14.188;2024-02-15T01:41:45;13.48;;;8.00;;
68475;SDS011;55464;48.266;14.188;2024-02-15T01:44:13;10.82;;;7.13;;
68475;SDS011;55464;48.266;14.188;2024-02-15T01:46:38;12.45;;;6.68;;
68475;SDS011;55464;48.266;14.188;2024-02-15T01:49:04;16.73;;;6.40;;
68475;SDS011;55464;48.266;14.188;2024-02-15T01:51:32;14.77;;;6.47;;
68475;SDS011;55464;48.266;14.188;2024-02-15T01:54:00;14.05;;;6.47;;
68475;SDS011;55464;48.266;14.188;2024-02-15T01:56:26;9.32;;;5.80;;
68475;SDS011;55464;48.266;14.188;2024-02-15T01:58:53;10.07;;;6.05;;
68475;SDS011;55464;48.266;14.188;2024-02-15T02:01:18;10.95;;;6.18;;
68475;SDS011;55464;48.266;14.188;2024-02-15T02:03:46;9.73;;;6.00;;
68475;SDS011;55464;48.266;14.188;2024-02-15T02:06:11;9.35;;;6.20;;
68475;SDS011;55464;48.266;14.188;2024-02-15T02:08:38;10.10;;;6.22;;
68475;SDS011;55464;48.266;14.188;2024-02-15T02:11:04;8.18;;;6.70;;
68475;SDS011;55464;48.266;14.188;2024-02-15T02:13:30;9.90;;;6.25;;
68475;SDS011;55464;48.266;14.188;2024-02-15T02:15:55;14.02;;;7.28;;
68475;SDS011;55464;48.266;14.188;2024-02-15T02:18:21;11.57;;;6.53;;
68475;SDS011;55464;48.266;14.188;2024-02-15T02:20:49;13.82;;;7.28;;
68475;SDS011;55464;48.266;14.188;2024-02-15T02:23:15;10.23;;;6.85;;
68475;SDS011;55464;48.266;14.188;2024-02-15T02:25:43;13.10;;;7.28;;
68475;SDS011;55464;48.266;14.188;2024-02-15T02:28:09;12.07;;;7.22;;
68475;SDS011;55464;48.266;14.188;2024-02-15T02:30:35;14.18;;;7.95;;
68475;SDS011;55464;48.266;14.188;2024-02-15T02:33:01;15.77;;;7.38;;
68475;SDS011;55464;48.266;14.188;2024-02-15T02:35:27;10.20;;;6.28;;
68475;SDS011;55464;48.266;14.188;2024-02-15T02:37:55;11.00;;;6.90;;
68475;SDS011;55464;48.266;14.188;2024-02-15T02:40:21;12.68;;;6.85;;
68475;SDS011;55464;48.266;14.188;2024-02-15T02:42:48;18.83;;;8.23;;
68475;SDS011;55464;48.266;14.188;2024-02-15T02:45:18;15.15;;;7.90;;
68475;SDS011;55464;48.266;14.188;2024-02-15T02:47:45;11.60;;;7.00;;
68475;SDS011;55464;48.266;14.188;2024-02-15T02:50:12;13.00;;;7.47;;
68475;SDS011;55464;48.266;14.188;2024-02-15T02:52:39;18.48;;;7.63;;
68475;SDS011;55464;48.266;14.188;2024-02-15T02:55:04;12.63;;;6.47;;
68475;SDS011;55464;48.266;14.188;2024-02-15T02:57:33;14.15;;;8.00;;
68475;SDS011;55464;48.266;14.188;2024-02-15T03:00:16;11.40;;;7.40;;
68475;SDS011;55464;48.266;14.188;2024-02-15T03:02:42;14.65;;;7.28;;
68475;SDS011;55464;48.266;14.188;2024-02-15T03:05:08;12.88;;;7.47;;
68475;SDS011;55464;48.266;14.188;2024-02-15T03:07:36;13.02;;;7.13;;
68475;SDS011;55464;48.266;14.188;2024-02-15T03:10:02;18.63;;;7.85;;
68475;SDS011;55464;48.266;14.188;2024-02-15T03:12:29;17.92;;;7.38;;
68475;SDS011;55464;48.266;14.188;2024-02-15T03:14:56;12.88;;;7.47;;
68475;SDS011;55464;48.266;14.188;2024-02-15T03:17:24;15.05;;;6.88;;
68475;SDS011;55464;48.266;14.188;2024-02-15T03:19:51;14.27;;;6.87;;
68475;SDS011;55464;48.266;14.188;2024-02-15T03:22:16;12.18;;;7.30;;
68475;SDS011;55464;48.266;14.188;2024-02-15T03:24:42;11.43;;;7.30;;
68475;SDS011;55464;48.266;14.188;2024-02-15T03:27:07;14.68;;;7.32;;
68475;SDS011;55464;48.266;14.188;2024-02-15T03:29:35;15.52;;;8.23;;
68475;SDS011;55464;48.266;14.188;2024-02-15T03:32:01;12.88;;;7.93;;
68475;SDS011;55464;48.266;14.188;2024-02-15T03:34:30;12.82;;;7.68;;
68475;SDS011;55464;48.266;14.188;2024-02-15T03:36:56;13.85;;;6.90;;
68475;SDS011;55464;48.266;14.188;2024-02-15T03:39:22;13.60;;;7.30;;
68475;SDS011;55464;48.266;14.188;2024-02-15T03:41:48;19.70;;;7.72;;
68475;SDS011;55464;48.266;14.188;2024-02-15T03:44:14;13.40;;;7.72;;
68475;SDS011;55464;48.266;14.188;2024-02-15T03:46:40;17.42;;;8.73;;
68475;SDS011;55464;48.266;14.188;2024-02-15T03:49:05;15.25;;;8.13;;
68475;SDS011;55464;48.266;14.188;2024-02-15T03:51:33;16.13;;;8.38;;
68475;SDS011;55464;48.266;14.188;2024-02-15T03:53:59;12.55;;;7.72;;
68475;SDS011;55464;48.266;14.188;2024-02-15T03:56:24;12.98;;;7.95;;
68475;SDS011;55464;48.266;14.188;2024-02-15T03:58:50;14.82;;;8.05;;
68475;SDS011;55464;48.266;14.188;2024-02-15T04:01:16;19.17;;;8.07;;
68475;SDS011;55464;48.266;14.188;2024-02-15T04:03:42;13.50;;;8.20;;
68475;SDS011;55464;48.266;14.188;2024-02-15T04:06:07;12.63;;;7.88;;
68475;SDS011;55464;48.266;14.188;2024-02-15T04:08:35;11.68;;;7.75;;
68475;SDS011;55464;48.266;14.188;2024-02-15T04:11:04;14.48;;;7.85;;
68475;SDS011;55464;48.266;14.188;2024-02-15T04:13:31;14.20;;;7.50;;
68475;SDS011;55464;48.266;14.188;2024-02-15T04:15:57;12.73;;;7.28;;
68475;SDS011;55464;48.266;14.188;2024-02-15T04:18:23;15.60;;;7.25;;
68475;SDS011;55464;48.266;14.188;2024-02-15T04:20:48;11.70;;;6.75;;
68475;SDS011;55464;48.266;14.188;2024-02-15T04:23:14;10.73;;;6.22;;
68475;SDS011;55464;48.266;14.188;2024-02-15T04:25:39;16.80;;;6.35;;
68475;SDS011;55464;48.266;14.188;2024-02-15T04:28:06;11.73;;;7.15;;
68475;SDS011;55464;48.266;14.188;2024-02-15T04:30:33;10.70;;;7.45;;
68475;SDS011;55464;48.266;14.188;2024-02-15T04:32:59;12.27;;;7.13;;
68475;SDS011;55464;48.266;14.188;2024-02-15T04:35:25;13.60;;;7.18;;
68475;SDS011;55464;48.266;14.188;2024-02-15T04:37:52;13.90;;;7.45;;
68475;SDS011;55464;48.266;14.188;2024-02-15T04:40:18;13.25;;;7.47;;
68475;SDS011;55464;48.266;14.188;2024-02-15T04:42:44;11.80;;;6.55;;
68475;SDS011;55464;48.266;14.188;2024-02-15T04:45:12;13.48;;;7.60;;
68475;SDS011;55464;48.266;14.188;2024-02-15T04:47:40;10.82;;;7.13;;
68475;SDS011;55464;48.266;14.188;2024-02-15T04:50:06;13.73;;;7.07;;
68475;SDS011;55464;48.266;14.188;2024-02-15T04:52:34;13.85;;;7.45;;
68475;SDS011;55464;48.266;14.188;2024-02-15T04:54:59;13.23;;;8.15;;
68475;SDS011;55464;48.266;14.188;2024-02-15T04:57:25;16.48;;;8.88;;
68475;SDS011;55464;48.266;14.188;2024-02-15T04:59:53;13.65;;;8.48;;
68475;SDS011;55464;48.266;14.188;2024-02-15T05:02:19;14.40;;;8.40;;
68475;SDS011;55464;48.266;14.188;2024-02-15T05:04:45;13.00;;;7.80;;
68475;SDS011;55464;48.266;14.188;2024-02-15T05:07:10;12.85;;;8.10;;
68475;SDS011;55464;48.266;14.188;2024-02-15T05:09:36;10.23;;;7.82;;
68475;SDS011;55464;48.266;14.188;2024-02-15T05:12:02;12.35;;;8.45;;
68475;SDS011;55464;48.266;14.188;2024-02-15T05:14:28;17.33;;;8.90;;
68475;SDS011;55464;48.266;14.188;2024-02-15T05:16:53;13.57;;;8.18;;
68475;SDS011;55464;48.266;14.188;2024-02-15T05:19:19;11.00;;;7.75;;
68475;SDS011;55464;48.266;14.188;2024-02-15T05:21:45;12.95;;;7.78;;
68475;SDS011;55464;48.266;14.188;2024-02-15T05:24:17;10.70;;;8.25;;
68475;SDS011;55464;48.266;14.188;2024-02-15T05:26:44;12.57;;;8.40;;
68475;SDS011;55464;48.266;14.188;2024-02-15T05:29:14;13.07;;;9.10;;
68475;SDS011;55464;48.266;14.188;2024-02-15T05:31:39;20.80;;;11.85;;
68475;SDS011;55464;48.266;14.188;2024-02-15T05:34:05;24.63;;;13.38;;
68475;SDS011;55464;48.266;14.188;2024-02-15T05:36:36;15.85;;;11.05;;
68475;SDS011;55464;48.266;14.188;2024-02-15T05:39:02;15.00;;;10.45;;
68475;SDS011;55464;48.266;14.188;2024-02-15T05:41:27;16.35;;;9.35;;
68475;SDS011;55464;48.266;14.188;2024-02-15T05:43:53;11.15;;;6.80;;
68475;SDS011;55464;48.266;14.188;2024-02-15T05:46:18;13.75;;;7.97;;
68475;SDS011;55464;48.266;14.188;2024-02-15T05:48:48;11.82;;;7.97;;
68475;SDS011;55464;48.266;14.188;2024-02-15T05:51:14;12.10;;;8.07;;
68475;SDS011;55464;48.266;14.188;2024-02-15T05:53:40;11.02;;;7.38;;
68475;SDS011;55464;48.266;14.188;2024-02-15T05:56:06;13.10;;;7.20;;
68475;SDS011;55464;48.266;14.188;2024-02-15T05:58:32;15.43;;;8.20;;
68475;SDS011;55464;48.266;14.188;2024-02-15T06:00:58;14.93;;;7.20;;
68475;SDS011;55464;48.266;14.188;2024-02-15T06:03:28;11.47;;;7.67;;
68475;SDS011;55464;48.266;14.188;2024-02-15T06:05:54;12.32;;;7.35;;
68475;SDS011;55464;48.266;14.188;2024-02-15T06:08:31;13.20;;;7.57;;
68475;SDS011;55464;48.266;14.188;2024-02-15T06:10:56;11.30;;;7.88;;
68475;SDS011;55464;48.266;14.188;2024-02-15T06:13:22;11.70;;;8.35;;
68475;SDS011;55464;48.266;14.188;2024-02-15T06:15:49;12.57;;;8.38;;
68475;SDS011;55464;48.266;14.188;2024-02-15T06:18:21;12.38;;;8.30;;
68475;SDS011;55464;48.266;14.188;2024-02-15T06:20:50;11.18;;;8.02;;
68475;SDS011;55464;48.266;14.188;2024-02-15T06:23:19;12.23;;;8.45;;
68475;SDS011;55464;48.266;14.188;2024-02-15T06:25:50;15.93;;;8.43;;
68475;SDS011;55464;48.266;14.188;2024-02-15T06:28:18;12.95;;;8.00;;
68475;SDS011;55464;48.266;14.188;2024-02-15T06:31:01;13.13;;;8.23;;
68475;SDS011;55464;48.266;14.188;2024-02-15T06:33:45;13.02;;;8.13;;
68475;SDS011;55464;48.266;14.188;2024-02-15T06:36:30;13.50;;;7.82;;
68475;SDS011;55464;48.266;14.188;2024-02-15T06:39:14;10.43;;;7.63;;
68475;SDS011;55464;48.266;14.188;2024-02-15T06:41:58;12.80;;;7.68;;
68475;SDS011;55464;48.266;14.188;2024-02-15T06:44:23;12.88;;;8.15;;
68475;SDS011;55464;48.266;14.188;2024-02-15T06:46:49;12.05;;;7.63;;
68475;SDS011;55464;48.266;14.188;2024-02-15T06:49:15;15.70;;;7.80;;
68475;SDS011;55464;48.266;14.188;2024-02-15T06:51:41;15.80;;;8.68;;
68475;SDS011;55464;48.266;14.188;2024-02-15T06:54:07;14.88;;;7.50;;
68475;SDS011;55464;48.266;14.188;2024-02-15T06:56:35;11.45;;;7.82;;
68475;SDS011;55464;48.266;14.188;2024-02-15T06:59:04;16.80;;;8.30;;
68475;SDS011;55464;48.266;14.188;2024-02-15T07:01:30;17.85;;;8.02;;
68475;SDS011;55464;48.266;14.188;2024-02-15T07:03:57;16.63;;;8.48;;
68475;SDS011;55464;48.266;14.188;2024-02-15T07:06:23;11.38;;;7.95;;
68475;SDS011;55464;48.266;14.188;2024-02-15T07:08:48;12.70;;;8.60;;
68475;SDS011;55464;48.266;14.188;2024-02-15T07:11:15;12.77;;;9.55;;
68475;SDS011;55464;48.266;14.188;2024-02-15T07:13:41;18.95;;;8.95;;
68475;SDS011;55464;48.266;14.188;2024-02-15T07:16:09;14.10;;;9.23;;
68475;SDS011;55464;48.266;14.188;2024-02-15T07:18:36;14.23;;;9.15;;
68475;SDS011;55464;48.266;14.188;2024-02-15T07:21:02;14.40;;;8.60;;
68475;SDS011;55464;48.266;14.188;2024-02-15T07:23:33;15.50;;;9.20;;
68475;SDS011;55464;48.266;14.188;2024-02-15T07:25:59;15.07;;;9.27;;
68475;SDS011;55464;48.266;14.188;2024-02-15T07:28:25;15.98;;;9.15;;
68475;SDS011;55464;48.266;14.188;2024-02-15T07:30:54;16.95;;;9.43;;
68475;SDS011;55464;48.266;14.188;2024-02-15T07:33:20;17.55;;;10.85;;
68475;SDS011;55464;48.266;14.188;2024-02-15T07:35:47;17.88;;;9.25;;
68475;SDS011;55464;48.266;14.188;2024-02-15T07:38:16;16.48;;;10.63;;
68475;SDS011;55464;48.266;14.188;2024-02-15T07:40:42;16.75;;;10.23;;
68475;SDS011;55464;48.266;14.188;2024-02-15T07:43:07;19.33;;;10.57;;
68475;SDS011;55464;48.266;14.188;2024-02-15T07:45:33;16.63;;;10.13;;
68475;SDS011;55464;48.266;14.188;2024-02-15T07:48:01;15.40;;;9.95;;
68475;SDS011;55464;48.266;14.188;2024-02-15T07:50:29;15.30;;;10.02;;
68475;SDS011;55464;48.266;14.188;2024-02-15T07:52:55;16.45;;;10.00;;
68475;SDS011;55464;48.266;14.188;2024-02-15T07:55:21;17.38;;;10.85;;
68475;SDS011;55464;48.266;14.188;2024-02-15T07:57:46;16.58;;;9.40;;
68475;SDS011;55464;48.266;14.188;2024-02-15T08:00:13;15.23;;;10.20;;
68475;SDS011;55464;48.266;14.188;2024-02-15T08:02:41;12.48;;;9.02;;
68475;SDS011;55464;48.266;14.188;2024-02-15T08:05:09;15.48;;;9.52;;
68475;SDS011;55464;48.266;14.188;2024-02-15T08:07:44;18.42;;;9.50;;
68475;SDS011;55464;48.266;14.188;2024-02-15T08:10:10;15.77;;;9.10;;
68475;SDS011;55464;48.266;14.188;2024-02-15T08:15:09;17.42;;;10.15;;
68475;SDS011;55464;48.266;14.188;2024-02-15T08:17:40;18.70;;;10.80;;
68475;SDS011;55464;48.266;14.188;2024-02-15T08:20:07;16.25;;;10.48;;
68475;SDS011;55464;48.266;14.188;2024-02-15T08:22:36;18.95;;;10.63;;
68475;SDS011;55464;48.266;14.188;2024-02-15T08:25:11;21.60;;;9.80;;
68475;SDS011;55464;48.266;14.188;2024-02-15T08:27:41;21.38;;;9.80;;
68475;SDS011;55464;48.266;14.188;2024-02-15T08:30:09;17.98;;;10.30;;
68475;SDS011;55464;48.266;14.188;2024-02-15T08:32:40;16.25;;;10.55;;
68475;SDS011;55464;48.266;14.188;2024-02-15T08:35:10;23.58;;;10.85;;
68475;SDS011;55464;48.266;14.188;2024-02-15T08:37:37;21.63;;;10.75;;
68475;SDS011;55464;48.266;14.188;2024-02-15T08:40:04;21.65;;;10.52;;
68475;SDS011;55464;48.266;14.188;2024-02-15T08:42:43;19.90;;;9.77;;
68475;SDS011;55464;48.266;14.188;2024-02-15T08:45:11;17.02;;;9.73;;
68475;SDS011;55464;48.266;14.188;2024-02-15T08:47:41;19.17;;;10.43;;
68475;SDS011;55464;48.266;14.188;2024-02-15T08:50:08;16.33;;;9.98;;
68475;SDS011;55464;48.266;14.188;2024-02-15T08:52:35;19.02;;;10.48;;
68475;SDS011;55464;48.266;14.188;2024-02-15T08:55:04;28.15;;;10.98;;
68475;SDS011;55464;48.266;14.188;2024-02-15T08:57:34;18.23;;;10.90;;
68475;SDS011;55464;48.266;14.188;2024-02-15T09:00:01;15.13;;;9.65;;
68475;SDS011;55464;48.266;14.188;2024-02-15T09:02:30;19.63;;;11.13;;
68475;SDS011;55464;48.266;14.188;2024-02-15T09:04:55;24.25;;;12.68;;
68475;SDS011;55464;48.266;14.188;2024-02-15T09:07:21;18.88;;;11.00;;
68475;SDS011;55464;48.266;14.188;2024-02-15T09:09:47;21.73;;;12.30;;
68475;SDS011;55464;48.266;14.188;2024-02-15T09:12:12;25.48;;;12.38;;
68475;SDS011;55464;48.266;14.188;2024-02-15T09:14:38;21.85;;;10.73;;
68475;SDS011;55464;48.266;14.188;2024-02-15T09:17:04;23.10;;;13.38;;
68475;SDS011;55464;48.266;14.188;2024-02-15T09:19:34;23.52;;;12.40;;
68475;SDS011;55464;48.266;14.188;2024-02-15T09:22:01;20.58;;;12.60;;
68475;SDS011;55464;48.266;14.188;2024-02-15T09:24:29;25.65;;;11.18;;
68475;SDS011;55464;48.266;14.188;2024-02-15T09:26:55;20.73;;;11.63;;
68475;SDS011;55464;48.266;14.188;2024-02-15T09:29:21;23.17;;;11.43;;
68475;SDS011;55464;48.266;14.188;2024-02-15T09:31:49;21.23;;;11.52;;
68475;SDS011;55464;48.266;14.188;2024-02-15T09:34:15;22.50;;;11.27;;
68475;SDS011;55464;48.266;14.188;2024-02-15T09:36:40;25.80;;;12.55;;
68475;SDS011;55464;48.266;14.188;2024-02-15T09:39:06;20.95;;;12.13;;
68475;SDS011;55464;48.266;14.188;2024-02-15T09:41:32;23.35;;;12.70;;
68475;SDS011;55464;48.266;14.188;2024-02-15T09:43:59;19.70;;;11.27;;
68475;SDS011;55464;48.266;14.188;2024-02-15T09:46:26;17.23;;;11.18;;
68475;SDS011;55464;48.266;14.188;2024-02-15T09:48:53;16.45;;;10.98;;
68475;SDS011;55464;48.266;14.188;2024-02-15T09:51:25;16.40;;;9.85;;
68475;SDS011;55464;48.266;14.188;2024-02-15T09:53:52;20.15;;;12.43;;
68475;SDS011;55464;48.266;14.188;2024-02-15T09:56:19;23.70;;;12.35;;
68475;SDS011;55464;48.266;14.188;2024-02-15T09:58:46;21.05;;;11.05;;
68475;SDS011;55464;48.266;14.188;2024-02-15T10:01:12;19.67;;;11.55;;
68475;SDS011;55464;48.266;14.188;2024-02-15T10:03:40;18.88;;;10.98;;
68475;SDS011;55464;48.266;14.188;2024-02-15T10:06:06;17.30;;;11.23;;
68475;SDS011;55464;48.266;14.188;2024-02-15T10:08:31;20.00;;;11.60;;
68475;SDS011;55464;48.266;14.188;2024-02-15T10:11:06;27.60;;;11.85;;
68475;SDS011;55464;48.266;14.188;2024-02-15T10:13:35;21.98;;;11.38;;
68475;SDS011;55464;48.266;14.188;2024-02-15T10:16:14;21.23;;;12.45;;
68475;SDS011;55464;48.266;14.188;2024-02-15T10:18:41;23.10;;;12.18;;
68475;SDS011;55464;48.266;14.188;2024-02-15T10:21:07;20.65;;;12.43;;
68475;SDS011;55464;48.266;14.188;2024-02-15T10:23:32;20.98;;;11.75;;
68475;SDS011;55464;48.266;14.188;2024-02-15T10:25:58;22.30;;;11.65;;
68475;SDS011;55464;48.266;14.188;2024-02-15T10:28:23;22.10;;;12.07;;
68475;SDS011;55464;48.266;14.188;2024-02-15T10:30:49;20.48;;;11.35;;
68475;SDS011;55464;48.266;14.188;2024-02-15T10:33:27;20.50;;;11.85;;
68475;SDS011;55464;48.266;14.188;2024-02-15T10:38:33;18.13;;;11.05;;
68475;SDS011;55464;48.266;14.188;2024-02-15T10:41:06;16.95;;;11.23;;
68475;SDS011;55464;48.266;14.188;2024-02-15T10:43:33;15.82;;;10.40;;
68475;SDS011;55464;48.266;14.188;2024-02-15T10:45:59;17.88;;;9.38;;
68475;SDS011;55464;48.266;14.188;2024-02-15T10:48:26;19.77;;;10.65;;
68475;SDS011;55464;48.266;14.188;2024-02-15T10:50:59;17.17;;;10.85;;
68475;SDS011;55464;48.266;14.188;2024-02-15T10:53:30;16.50;;;10.93;;
68475;SDS011;55464;48.266;14.188;2024-02-15T10:58:38;20.27;;;10.68;;
68475;SDS011;55464;48.266;14.188;2024-02-15T11:01:12;17.45;;;10.73;;
68475;SDS011;55464;48.266;14.188;2024-02-15T11:03:52;15.43;;;10.27;;
68475;SDS011;55464;48.266;14.188;2024-02-15T11:06:26;16.05;;;10.60;;
68475;SDS011;55464;48.266;14.188;2024-02-15T11:08:52;13.43;;;9.80;;
68475;SDS011;55464;48.266;14.188;2024-02-15T11:11:19;15.45;;;10.05;;
68475;SDS011;55464;48.266;14.188;2024-02-15T11:13:48;16.23;;;9.43;;
68475;SDS011;55464;48.266;14.188;2024-02-15T11:19:05;18.13;;;10.35;;
68475;SDS011;55464;48.266;14.188;2024-02-15T11:24:27;14.93;;;8.25;;
68475;SDS011;55464;48.266;14.188;2024-02-15T11:26:54;12.63;;;7.38;;
68475;SDS011;55464;48.266;14.188;2024-02-15T11:35:17;12.63;;;7.13;;
68475;SDS011;55464;48.266;14.188;2024-02-15T11:40:20;13.32;;;7.97;;
68475;SDS011;55464;48.266;14.188;2024-02-15T11:43:07;13.00;;;7.25;;
68475;SDS011;55464;48.266;14.188;2024-02-15T11:45:34;12.05;;;7.13;;
68475;SDS011;55464;48.266;14.188;2024-02-15T11:48:12;10.20;;;6.90;;
68475;SDS011;55464;48.266;14.188;2024-02-15T11:50:38;9.60;;;6.18;;
68475;SDS011;55464;48.266;14.188;2024-02-15T11:53:07;7.85;;;5.63;;
68475;SDS011;55464;48.266;14.188;2024-02-15T11:55:37;16.25;;;6.70;;
68475;SDS011;55464;48.266;14.188;2024-02-15T11:58:03;10.13;;;6.45;;
68475;SDS011;55464;48.266;14.188;2024-02-15T12:00:30;10.02;;;6.28;;
68475;SDS011;55464;48.266;14.188;2024-02-15T12:03:15;8.57;;;5.63;;
68475;SDS011;55464;48.266;14.188;2024-02-15T12:06:00;12.52;;;6.18;;
68475;SDS011;55464;48.266;14.188;2024-02-15T12:08:45;9.48;;;6.63;;
68475;SDS011;55464;48.266;14.188;2024-02-15T12:11:29;8.15;;;5.97;;
68475;SDS011;55464;48.266;14.188;2024-02-15T12:14:17;9.30;;;5.53;;
68475;SDS011;55464;48.266;14.188;2024-02-15T12:17:11;7.50;;;5.68;;
68475;SDS011;55464;48.266;14.188;2024-02-15T12:19:56;11.20;;;5.10;;
68475;SDS011;55464;48.266;14.188;2024-02-15T12:25:06;10.68;;;5.63;;
68475;SDS011;55464;48.266;14.188;2024-02-15T12:27:43;7.72;;;5.22;;
68475;SDS011;55464;48.266;14.188;2024-02-15T12:30:16;8.25;;;4.95;;
68475;SDS011;55464;48.266;14.188;2024-02-15T12:32:46;10.90;;;5.40;;
68475;SDS011;55464;48.266;14.188;2024-02-15T12:35:16;9.63;;;5.55;;
68475;SDS011;55464;48.266;14.188;2024-02-15T12:37:46;11.73;;;5.35;;
68475;SDS011;55464;48.266;14.188;2024-02-15T12:40:18;7.10;;;4.45;;
68475;SDS011;55464;48.266;14.188;2024-02-15T12:42:47;7.13;;;5.18;;
68475;SDS011;55464;48.266;14.188;2024-02-15T12:47:45;7.07;;;5.20;;
68475;SDS011;55464;48.266;14.188;2024-02-15T12:50:15;7.55;;;5.20;;
68475;SDS011;55464;48.266;14.188;2024-02-15T12:57:42;9.57;;;6.53;;
68475;SDS011;55464;48.266;14.188;2024-02-15T13:00:14;8.52;;;5.30;;
68475;SDS011;55464;48.266;14.188;2024-02-15T13:02:43;11.37;;;6.17;;
68475;SDS011;55464;48.266;14.188;2024-02-15T13:05:14;10.40;;;6.03;;
68475;SDS011;55464;48.266;14.188;2024-02-15T13:07:40;8.68;;;5.32;;
68475;SDS011;55464;48.266;14.188;2024-02-15T13:10:06;10.18;;;5.40;;
68475;SDS011;55464;48.266;14.188;2024-02-15T13:12:33;8.32;;;5.07;;
68475;SDS011;55464;48.266;14.188;2024-02-15T13:15:02;12.25;;;5.30;;
68475;SDS011;55464;48.266;14.188;2024-02-15T13:17:31;8.75;;;5.43;;
68475;SDS011;55464;48.266;14.188;2024-02-15T13:20:01;6.32;;;4.30;;
68475;SDS011;55464;48.266;14.188;2024-02-15T13:22:29;6.40;;;4.25;;
68475;SDS011;55464;48.266;14.188;2024-02-15T13:24:56;8.75;;;4.82;;
68475;SDS011;55464;48.266;14.188;2024-02-15T13:27:21;11.05;;;4.53;;
68475;SDS011;55464;48.266;14.188;2024-02-15T13:29:48;7.72;;;4.60;;
68475;SDS011;55464;48.266;14.188;2024-02-15T13:32:14;9.52;;;4.07;;
68475;SDS011;55464;48.266;14.188;2024-02-15T13:34:42;7.97;;;4.43;;
68475;SDS011;55464;48.266;14.188;2024-02-15T13:37:08;7.13;;;3.70;;
68475;SDS011;55464;48.266;14.188;2024-02-15T13:39:33;6.75;;;3.35;;
68475;SDS011;55464;48.266;14.188;2024-02-15T13:42:02;4.45;;;3.47;;
68475;SDS011;55464;48.266;14.188;2024-02-15T13:44:27;8.82;;;4.15;;
68475;SDS011;55464;48.266;14.188;2024-02-15T13:46:56;7.28;;;3.88;;
68475;SDS011;55464;48.266;14.188;2024-02-15T13:49:22;5.32;;;3.50;;
68475;SDS011;55464;48.266;14.188;2024-02-15T13:51:47;4.78;;;3.42;;
68475;SDS011;55464;48.266;14.188;2024-02-15T13:54:14;8.13;;;3.60;;
68475;SDS011;55464;48.266;14.188;2024-02-15T13:56:39;4.63;;;3.40;;
68475;SDS011;55464;48.266;14.188;2024-02-15T13:59:05;4.70;;;3.20;;
68475;SDS011;55464;48.266;14.188;2024-02-15T14:01:31;7.45;;;3.42;;
68475;SDS011;55464;48.266;14.188;2024-02-15T14:03:56;5.15;;;3.70;;
68475;SDS011;55464;48.266;14.188;2024-02-15T14:06:22;7.10;;;3.67;;
68475;SDS011;55464;48.266;14.188;2024-02-15T14:08:48;3.50;;;3.08;;
68475;SDS011;55464;48.266;14.188;2024-02-15T14:11:14;5.28;;;3.00;;
68475;SDS011;55464;48.266;14.188;2024-02-15T14:13:39;7.63;;;3.67;;
68475;SDS011;55464;48.266;14.188;2024-02-15T14:16:06;8.30;;;3.10;;
68475;SDS011;55464;48.266;14.188;2024-02-15T14:18:33;3.33;;;2.80;;
68475;SDS011;55464;48.266;14.188;2024-02-15T14:20:59;8.57;;;3.25;;
68475;SDS011;55464;48.266;14.188;2024-02-15T14:23:25;7.70;;;3.75;;
68475;SDS011;55464;48.266;14.188;2024-02-15T14:25:52;8.82;;;3.13;;
68475;SDS011;55464;48.266;14.188;2024-02-15T14:28:19;7.85;;;3.65;;
68475;SDS011;55464;48.266;14.188;2024-02-15T14:30:44;6.60;;;2.47;;
68475;SDS011;55464;48.266;14.188;2024-02-15T14:33:28;4.32;;;2.13;;
68475;SDS011;55464;48.266;14.188;2024-02-15T14:35:55;3.95;;;2.30;;
68475;SDS011;55464;48.266;14.188;2024-02-15T14:38:21;3.05;;;2.03;;
68475;SDS011;55464;48.266;14.188;2024-02-15T14:40:48;3.22;;;2.50;;
68475;SDS011;55464;48.266;14.188;2024-02-15T14:43:26;3.30;;;2.40;;
68475;SDS011;55464;48.266;14.188;2024-02-15T14:45:51;2.42;;;2.08;;
68475;SDS011;55464;48.266;14.188;2024-02-15T14:48:21;1.67;;;1.48;;
68475;SDS011;55464;48.266;14.188;2024-02-15T14:50:49;3.28;;;1.90;;
68475;SDS011;55464;48.266;14.188;2024-02-15T14:53:15;2.00;;;1.55;;
68475;SDS011;55464;48.266;14.188;2024-02-15T14:55:43;3.47;;;1.60;;
68475;SDS011;55464;48.266;14.188;2024-02-15T14:58:11;3.10;;;2.20;;